Time;durP1;ratioP1;P1;durP2;ratioP2;P2;SDS_P1;SDS_P2;PMS_P1;PMS_P2;Temp;Humidity;BMP_temperature;BMP_pressure;BME280_temperature;BME280_humidity;BME280_pressure;Samples;Min_cycle;Max_cycle;Signal;HPM_P1;HPM_P2
2024/01/19 00:01:26;;;;;;;4.17;3.77;;;;;;;-0.55;81.03;100366.81;5071387;28;20740;-76
2024/01/19 00:03:52;;;;;;;4.13;3.73;;;;;;;-0.46;80.61;100355.03;5070535;28;20201;-76
2024/01/19 00:06:18;;;;;;;3.47;3.00;;;;;;;-0.36;79.70;100352.72;5071443;28;20228;-76
2024/01/19 00:08:46;;;;;;;4.30;3.93;;;;;;;-0.42;80.13;100358.56;5070717;28;20250;-76
2024/01/19 00:11:16;;;;;;;4.47;4.07;;;;;;;-0.36;79.87;100371.53;5071092;28;20204;-76
2024/01/19 00:13:42;;;;;;;4.27;3.30;;;;;;;-0.41;79.31;100380.81;5071300;28;20281;-76
2024/01/19 00:16:09;;;;;;;5.30;3.33;;;;;;;-0.47;79.59;100385.81;5071812;28;20777;-76
2024/01/19 00:18:35;;;;;;;3.90;3.57;;;;;;;-0.49;79.29;100390.88;5076024;28;20261;-78
2024/01/19 00:21:02;;;;;;;4.13;3.73;;;;;;;-0.46;79.47;100393.50;5076819;28;20702;-76
2024/01/19 00:23:28;;;;;;;4.40;3.40;;;;;;;-0.52;79.27;100400.19;5075504;28;20233;-76
2024/01/19 00:25:56;;;;;;;4.23;3.93;;;;;;;-0.53;79.78;100404.47;5076165;28;20209;-78
2024/01/19 00:28:23;;;;;;;4.77;3.47;;;;;;;-0.54;80.02;100404.41;5076679;28;20216;-78
2024/01/19 00:30:49;;;;;;;4.53;3.93;;;;;;;-0.78;79.78;100412.34;5076867;28;20255;-78
2024/01/19 00:33:14;;;;;;;4.90;3.80;;;;;;;-0.67;81.37;100385.31;5075712;28;20208;-78
2024/01/19 00:35:41;;;;;;;4.43;4.10;;;;;;;-0.71;81.36;100371.53;5076354;28;20250;-78
2024/01/19 00:38:07;;;;;;;4.10;3.80;;;;;;;-0.55;80.52;100367.66;5076685;28;20224;-78
2024/01/19 00:40:33;;;;;;;4.03;3.30;;;;;;;-0.60;80.26;100367.53;5075878;28;20621;-78
2024/01/19 00:43:01;;;;;;;4.13;3.77;;;;;;;-0.56;80.39;100371.03;5076041;28;20667;-78
2024/01/19 00:45:27;;;;;;;4.50;4.10;;;;;;;-0.57;80.80;100383.84;5075915;28;20570;-77
2024/01/19 00:47:54;;;;;;;4.17;3.80;;;;;;;-0.62;80.46;100391.41;5075472;28;20220;-78
2024/01/19 00:50:20;;;;;;;4.10;3.80;;;;;;;-0.60;80.73;100382.06;5074965;28;20196;-77
2024/01/19 00:52:47;;;;;;;5.17;4.67;;;;;;;-0.65;80.95;100384.50;5076372;28;20197;-78
2024/01/19 00:55:13;;;;;;;5.27;4.83;;;;;;;-0.61;81.86;100370.06;5075864;28;20659;-78
2024/01/19 00:57:39;;;;;;;6.00;5.27;;;;;;;-0.62;82.48;100358.06;5076144;28;20220;-78
2024/01/19 01:00:09;;;;;;;5.97;5.37;;;;;;;-0.50;82.05;100340.41;5075630;28;20250;-78
2024/01/19 01:02:35;;;;;;;5.97;5.47;;;;;;;-0.44;82.17;100340.59;5075384;28;20200;-78
2024/01/19 01:05:01;;;;;;;5.80;5.30;;;;;;;-0.35;81.52;100346.78;5075431;28;20266;-78
2024/01/19 01:07:28;;;;;;;5.97;5.47;;;;;;;-0.32;81.41;100360.50;5075014;28;20225;-78
2024/01/19 01:09:54;;;;;;;5.57;5.07;;;;;;;-0.32;80.87;100373.34;5075120;28;20209;-78
2024/01/19 01:12:21;;;;;;;5.60;5.20;;;;;;;-0.33;80.76;100379.31;5075389;28;20205;-78
2024/01/19 01:14:48;;;;;;;5.73;5.23;;;;;;;-0.28;80.34;100390.56;5075563;28;20633;-77
2024/01/19 01:17:15;;;;;;;5.23;4.77;;;;;;;-0.30;80.47;100404.16;5078727;28;20221;-77
2024/01/19 01:19:42;;;;;;;6.30;5.00;;;;;;;-0.35;80.89;100409.19;5083382;28;20288;-77
2024/01/19 01:22:09;;;;;;;5.90;5.40;;;;;;;-0.41;80.25;100417.56;5079179;28;20220;-78
2024/01/19 01:24:35;;;;;;;5.80;5.33;;;;;;;-0.37;80.49;100413.41;5082756;28;20284;-78
2024/01/19 01:27:02;;;;;;;6.00;5.40;;;;;;;-0.52;80.48;100416.44;5075354;28;20232;-78
2024/01/19 01:29:28;;;;;;;6.10;5.50;;;;;;;-0.60;81.01;100410.25;5074850;28;20204;-78
2024/01/19 01:31:54;;;;;;;6.63;5.93;;;;;;;-0.49;81.78;100398.56;5075460;28;20193;-78
2024/01/19 01:34:22;;;;;;;6.90;6.30;;;;;;;-0.52;81.63;100405.31;5074600;28;20201;-78
2024/01/19 01:36:48;;;;;;;6.93;5.70;;;;;;;-0.44;81.72;100398.69;5075038;28;20221;-78
2024/01/19 01:39:15;;;;;;;7.13;6.43;;;;;;;-0.41;81.41;100406.47;5074220;28;20197;-78
2024/01/19 01:41:42;;;;;;;5.97;5.47;;;;;;;-0.36;81.12;100412.56;5074774;28;20220;-78
2024/01/19 01:44:09;;;;;;;7.33;6.53;;;;;;;-0.31;80.65;100418.69;5074949;28;20197;-78
2024/01/19 01:46:35;;;;;;;6.93;6.30;;;;;;;-0.29;80.48;100421.28;5075274;28;20225;-78
2024/01/19 01:49:02;;;;;;;6.00;5.50;;;;;;;-0.24;80.83;100422.25;5074426;28;20298;-78
2024/01/19 01:51:31;;;;;;;6.03;5.43;;;;;;;-0.29;80.63;100429.84;5075067;28;20209;-78
2024/01/19 01:53:58;;;;;;;6.23;5.73;;;;;;;-0.30;80.44;100430.66;5074937;28;20207;-78
2024/01/19 01:56:27;;;;;;;6.73;6.13;;;;;;;-0.38;80.44;100439.00;5074097;28;20225;-76
2024/01/19 01:58:54;;;;;;;7.70;7.00;;;;;;;-0.39;80.87;100438.13;5072907;28;20200;-76
2024/01/19 02:01:21;;;;;;;7.83;7.13;;;;;;;-0.28;80.70;100431.59;5073475;28;20274;-76
2024/01/19 02:03:48;;;;;;;7.53;6.67;;;;;;;-0.26;80.65;100441.88;5072582;28;20714;-76
2024/01/19 02:06:15;;;;;;;7.73;7.13;;;;;;;-0.47;81.00;100444.78;5073443;28;20707;-76
2024/01/19 02:08:43;;;;;;;7.83;7.10;;;;;;;-0.41;81.19;100434.66;5073418;28;20265;-76
2024/01/19 02:11:09;;;;;;;7.90;7.23;;;;;;;-0.36;82.01;100419.38;5074075;28;20220;-78
2024/01/19 02:13:35;;;;;;;9.07;8.27;;;;;;;-0.22;81.93;100420.59;5075790;28;20205;-76
2024/01/19 02:16:03;;;;;;;7.90;7.20;;;;;;;-0.18;81.75;100429.22;5073298;28;20250;-76
2024/01/19 02:18:29;;;;;;;8.50;7.63;;;;;;;-0.08;81.58;100431.19;5072468;28;20667;-76
2024/01/19 02:20:56;;;;;;;8.73;7.83;;;;;;;-0.12;81.72;100437.97;5073357;28;20225;-76
2024/01/19 02:23:27;;;;;;;8.43;7.63;;;;;;;0.01;81.86;100433.97;5073420;28;20626;-76
2024/01/19 02:25:55;;;;;;;9.00;8.20;;;;;;;-0.02;81.60;100434.78;5072875;28;20211;-76
2024/01/19 02:28:21;;;;;;;8.13;7.33;;;;;;;0.06;81.75;100437.53;5072854;28;20713;-75
2024/01/19 02:30:48;;;;;;;8.13;7.43;;;;;;;-0.05;81.88;100444.09;5072863;28;20200;-76
2024/01/19 02:33:14;;;;;;;10.13;7.37;;;;;;;0.06;81.55;100434.97;5072238;28;20257;-76
2024/01/19 02:35:41;;;;;;;8.20;7.40;;;;;;;0.15;81.10;100434.31;5073165;28;20200;-76
2024/01/19 02:38:07;;;;;;;8.63;7.73;;;;;;;0.19;80.83;100436.09;5073166;28;20608;-76
2024/01/19 02:40:33;;;;;;;9.37;8.27;;;;;;;0.15;81.04;100444.56;5071905;28;20258;-76
2024/01/19 02:43:01;;;;;;;9.07;7.37;;;;;;;-0.01;80.51;100467.28;5072502;28;20274;-76
2024/01/19 02:45:27;;;;;;;9.97;7.97;;;;;;;0.04;80.72;100454.59;5072651;28;20277;-76
2024/01/19 02:47:54;;;;;;;8.07;7.27;;;;;;;0.17;80.14;100456.59;5073307;28;20226;-78
2024/01/19 02:50:20;;;;;;;8.20;7.50;;;;;;;0.21;80.67;100466.94;5072310;28;20246;-76
2024/01/19 02:52:46;;;;;;;8.47;7.47;;;;;;;-0.08;80.45;100479.94;5072766;28;20250;-76
2024/01/19 02:55:13;;;;;;;9.97;7.93;;;;;;;0.08;80.68;100481.19;5072303;28;20213;-76
2024/01/19 02:57:39;;;;;;;8.53;7.73;;;;;;;-0.17;81.69;100467.75;5075318;28;20270;-76
2024/01/19 03:00:08;;;;;;;8.00;7.30;;;;;;;-0.07;81.18;100461.16;5072114;28;20233;-76
2024/01/19 03:02:34;;;;;;;8.77;7.87;;;;;;;0.04;81.27;100454.59;5071997;28;20698;-76
2024/01/19 03:05:01;;;;;;;9.10;8.20;;;;;;;0.21;80.76;100459.25;5071716;28;20609;-76
2024/01/19 03:07:27;;;;;;;9.53;8.63;;;;;;;0.20;80.07;100458.41;5072454;28;20267;-76
2024/01/19 03:09:54;;;;;;;9.40;8.47;;;;;;;0.19;79.75;100470.34;5071864;28;20200;-77
2024/01/19 03:12:20;;;;;;;8.40;7.70;;;;;;;0.22;79.40;100479.81;5072454;28;20197;-75
2024/01/19 03:14:46;;;;;;;9.10;8.30;;;;;;;0.13;79.71;100501.00;5072137;28;20604;-76
2024/01/19 03:17:14;;;;;;;9.07;8.17;;;;;;;0.23;79.24;100503.78;5072314;28;20224;-76
2024/01/19 03:19:41;;;;;;;8.67;7.87;;;;;;;0.28;79.25;100515.91;5071275;28;20205;-76
2024/01/19 03:22:07;;;;;;;9.07;7.30;;;;;;;0.24;79.67;100521.81;5072166;28;20220;-76
2024/01/19 03:24:34;;;;;;;9.67;8.67;;;;;;;-0.09;79.54;100534.66;5072043;28;20197;-76
2024/01/19 03:27:00;;;;;;;9.77;8.87;;;;;;;0.07;80.08;100523.94;5088620;28;20224;-75
2024/01/19 03:29:27;;;;;;;9.60;8.70;;;;;;;0.15;80.22;100522.44;5090746;28;20231;-75
2024/01/19 03:31:53;;;;;;;8.70;8.00;;;;;;;0.16;79.79;100528.44;5092034;28;20205;-75
2024/01/19 03:34:21;;;;;;;9.87;8.90;;;;;;;-0.14;80.90;100531.09;5091533;28;20205;-76
2024/01/19 03:36:47;;;;;;;9.43;8.50;;;;;;;-0.09;81.32;100498.75;5080198;28;20225;-76
2024/01/19 03:39:14;;;;;;;9.87;9.07;;;;;;;0.06;80.87;100486.28;5071651;28;20201;-75
2024/01/19 03:41:40;;;;;;;10.00;9.03;;;;;;;-0.07;80.69;100500.50;5071738;28;20281;-76
2024/01/19 03:44:07;;;;;;;10.03;9.03;;;;;;;0.01;81.07;100505.81;5071742;28;20223;-76
2024/01/19 03:46:34;;;;;;;11.67;9.57;;;;;;;0.14;81.90;100486.44;5071958;28;20225;-76
2024/01/19 03:49:00;;;;;;;10.40;9.30;;;;;;;-0.22;82.19;100508.69;5071079;28;20259;-76
2024/01/19 03:51:28;;;;;;;10.50;9.70;;;;;;;-0.32;83.56;100472.50;5071093;28;20197;-76
2024/01/19 03:53:54;;;;;;;11.40;10.30;;;;;;;-0.12;83.41;100457.59;5071520;28;20685;-76
2024/01/19 03:56:20;;;;;;;11.53;10.33;;;;;;;0.11;82.62;100451.31;5071263;28;20220;-76
2024/01/19 03:58:47;;;;;;;11.80;10.60;;;;;;;0.23;82.24;100455.88;5071119;28;20204;-76
2024/01/19 04:01:15;;;;;;;13.43;11.80;;;;;;;0.12;83.69;100450.50;5071304;28;20250;-76
2024/01/19 04:03:44;;;;;;;15.57;11.07;;;;;;;0.28;83.48;100440.56;5071002;28;20209;-76
2024/01/19 04:06:10;;;;;;;12.93;11.83;;;;;;;0.36;83.05;100437.38;5071633;28;20246;-76
2024/01/19 04:08:38;;;;;;;13.33;12.13;;;;;;;0.49;82.39;100446.19;5071271;28;20252;-76
2024/01/19 04:11:05;;;;;;;13.20;11.90;;;;;;;0.51;82.21;100457.38;5071430;28;20240;-76
2024/01/19 04:13:31;;;;;;;12.20;11.07;;;;;;;0.53;82.78;100458.25;5071374;28;20227;-76
2024/01/19 04:15:57;;;;;;;11.73;10.73;;;;;;;0.55;81.95;100464.31;5071565;28;20255;-76
2024/01/19 04:18:24;;;;;;;12.47;11.37;;;;;;;0.32;82.45;100463.81;5070689;28;20204;-76
2024/01/19 04:20:50;;;;;;;12.77;11.67;;;;;;;0.58;82.19;100461.81;5071612;28;20200;-76
2024/01/19 04:23:16;;;;;;;14.40;11.80;;;;;;;0.54;81.81;100462.59;5072053;28;20279;-76
2024/01/19 04:25:44;;;;;;;12.40;11.10;;;;;;;0.29;81.22;100480.81;5071334;28;20205;-76
2024/01/19 04:28:10;;;;;;;13.33;11.90;;;;;;;0.49;81.68;100482.16;5071020;28;20212;-76
2024/01/19 04:30:37;;;;;;;11.90;10.63;;;;;;;0.55;80.70;100500.25;5070796;28;20209;-76
2024/01/19 04:33:04;;;;;;;12.73;11.63;;;;;;;0.44;81.12;100501.72;5070883;28;20209;-76
2024/01/19 04:35:30;;;;;;;12.10;10.90;;;;;;;0.59;80.69;100522.63;5070780;28;20603;-76
2024/01/19 04:37:56;;;;;;;13.73;11.20;;;;;;;0.33;80.18;100533.97;5071114;28;20643;-76
2024/01/19 04:40:23;;;;;;;10.93;9.93;;;;;;;0.50;80.58;100530.13;5071295;28;20214;-78
2024/01/19 04:42:50;;;;;;;12.33;10.97;;;;;;;0.61;79.91;100535.50;5074041;28;20233;-76
2024/01/19 04:45:17;;;;;;;12.53;11.43;;;;;;;0.52;80.34;100548.13;5070995;28;20208;-76
2024/01/19 04:47:43;;;;;;;13.10;11.13;;;;;;;0.45;81.40;100533.41;5071194;28;20278;-76
2024/01/19 04:50:10;;;;;;;11.93;10.93;;;;;;;0.53;80.87;100517.34;5070397;28;20439;-77
2024/01/19 04:52:36;;;;;;;12.20;11.00;;;;;;;0.24;82.30;100516.66;5071019;28;20196;-76
2024/01/19 04:55:03;;;;;;;12.70;11.50;;;;;;;0.26;82.94;100483.31;5070819;28;20205;-76
2024/01/19 04:57:29;;;;;;;12.70;11.53;;;;;;;0.31;83.82;100458.63;5071263;28;20228;-78
2024/01/19 04:59:57;;;;;;;12.67;11.40;;;;;;;0.31;83.45;100450.94;5072504;28;20209;-76
2024/01/19 05:02:24;;;;;;;12.33;11.27;;;;;;;0.36;83.80;100454.47;5071635;28;20784;-76
2024/01/19 05:04:51;;;;;;;12.43;10.83;;;;;;;0.41;83.40;100441.72;5073858;28;20209;-76
2024/01/19 05:07:17;;;;;;;16.03;10.63;;;;;;;0.38;82.92;100447.69;5074443;28;20282;-76
2024/01/19 05:09:44;;;;;;;12.57;11.37;;;;;;;0.43;82.89;100460.59;5074246;28;20579;-76
2024/01/19 05:12:11;;;;;;;13.23;12.03;;;;;;;0.50;82.93;100465.06;5074420;28;20207;-76
2024/01/19 05:14:37;;;;;;;13.10;11.60;;;;;;;0.27;83.76;100474.78;5074646;28;20204;-76
2024/01/19 05:17:05;;;;;;;12.37;11.27;;;;;;;0.19;83.47;100477.19;5080757;28;20224;-76
2024/01/19 05:19:31;;;;;;;12.37;11.27;;;;;;;0.06;83.90;100464.88;5093670;28;20249;-76
2024/01/19 05:21:58;;;;;;;12.93;11.80;;;;;;;0.02;84.61;100447.66;5094406;28;20220;-76
2024/01/19 05:24:24;;;;;;;12.23;11.20;;;;;;;0.14;84.41;100432.56;5094274;28;20248;-77
2024/01/19 05:26:51;;;;;;;11.87;10.87;;;;;;;0.31;83.86;100445.78;5094272;28;20240;-77
2024/01/19 05:29:17;;;;;;;12.03;10.00;;;;;;;0.34;82.96;100457.00;5094188;28;20659;-76
2024/01/19 05:31:43;;;;;;;10.90;10.00;;;;;;;0.31;82.14;100485.16;5085888;28;20228;-77
2024/01/19 05:34:11;;;;;;;11.63;9.93;;;;;;;0.33;82.20;100511.72;5069034;28;20204;-77
2024/01/19 05:36:37;;;;;;;11.33;10.33;;;;;;;0.36;82.27;100513.53;5093951;28;20225;-76
2024/01/19 05:39:04;;;;;;;11.07;10.07;;;;;;;0.50;81.39;100509.56;5093967;28;20216;-76
2024/01/19 05:41:31;;;;;;;11.07;10.17;;;;;;;0.39;81.78;100524.72;5094463;28;20204;-77
2024/01/19 05:43:57;;;;;;;11.30;10.10;;;;;;;0.18;81.03;100537.91;5094090;28;20204;-76
2024/01/19 05:46:23;;;;;;;11.13;10.07;;;;;;;0.16;81.79;100534.44;5094078;28;20232;-76
2024/01/19 05:48:50;;;;;;;10.50;9.50;;;;;;;0.01;82.90;100540.91;5093447;28;20213;-76
2024/01/19 05:51:17;;;;;;;10.40;9.50;;;;;;;0.13;81.98;100531.78;5094229;28;20208;-76
2024/01/19 05:53:44;;;;;;;10.07;9.20;;;;;;;0.24;82.09;100528.63;5094170;28;20261;-77
2024/01/19 05:56:10;;;;;;;10.50;9.13;;;;;;;0.02;83.41;100524.66;5093683;28;20223;-76
2024/01/19 05:58:37;;;;;;;10.87;9.97;;;;;;;0.06;83.02;100511.97;5093371;28;20200;-76
2024/01/19 06:01:05;;;;;;;14.90;10.57;;;;;;;0.31;82.90;100515.09;5090278;28;20675;-77
2024/01/19 06:03:33;;;;;;;10.87;9.87;;;;;;;0.38;82.36;100528.13;5093483;28;20930;-78
2024/01/19 06:06:00;;;;;;;11.00;9.97;;;;;;;0.25;83.04;100533.78;5096321;28;20203;-79
2024/01/19 06:08:28;;;;;;;11.37;10.20;;;;;;;0.26;83.36;100524.38;5096650;28;20208;-78
2024/01/19 06:10:55;;;;;;;13.27;11.97;;;;;;;0.27;85.34;100498.75;5096590;28;20209;-79
2024/01/19 06:13:21;;;;;;;14.43;13.03;;;;;;;0.66;88.29;100451.72;5095587;28;20735;-78
2024/01/19 06:15:47;;;;;;;13.23;11.97;;;;;;;0.55;87.10;100418.06;5095634;28;20196;-78
2024/01/19 06:18:14;;;;;;;12.73;11.70;;;;;;;0.55;85.27;100448.03;5087260;28;20196;-78
2024/01/19 06:20:42;;;;;;;13.50;12.30;;;;;;;0.51;87.78;100452.22;5096798;28;20667;-82
2024/01/19 06:23:08;;;;;;;14.67;11.80;;;;;;;0.52;86.42;100450.56;5099145;28;20249;-78
2024/01/19 06:25:37;;;;;;;13.83;12.53;;;;;;;0.44;86.98;100444.34;5106894;28;20200;-79
2024/01/19 06:28:04;;;;;;;13.53;12.30;;;;;;;0.20;85.95;100458.41;5095508;28;20656;-79
2024/01/19 06:30:30;;;;;;;13.77;12.37;;;;;;;0.19;85.80;100444.66;5087422;28;20204;-79
2024/01/19 06:32:57;;;;;;;14.40;13.20;;;;;;;0.34;86.71;100435.59;5085172;28;20200;-79
2024/01/19 06:35:23;;;;;;;15.27;13.87;;;;;;;0.36;87.15;100431.38;5095905;28;20691;-79
2024/01/19 06:37:49;;;;;;;14.33;12.90;;;;;;;0.33;85.74;100446.69;5096582;28;20746;-79
2024/01/19 06:40:16;;;;;;;14.17;12.93;;;;;;;0.17;85.67;100454.03;5088278;28;20663;-79
2024/01/19 06:42:45;;;;;;;13.90;12.80;;;;;;;-0.12;86.54;100452.47;5095726;28;20654;-79
2024/01/19 06:45:12;;;;;;;14.73;13.27;;;;;;;0.05;88.87;100432.38;5096537;28;20598;-79
2024/01/19 06:47:38;;;;;;;16.20;14.70;;;;;;;-0.10;87.76;100436.31;5095889;28;20273;-79
2024/01/19 06:50:06;;;;;;;16.03;14.53;;;;;;;0.32;88.52;100420.16;5084910;28;20200;-79
2024/01/19 06:52:32;;;;;;;15.77;14.47;;;;;;;0.24;87.17;100426.81;5090412;28;20200;-79
2024/01/19 06:54:59;;;;;;;15.20;13.90;;;;;;;0.19;87.16;100441.25;5096460;28;20204;-78
2024/01/19 06:57:25;;;;;;;15.13;13.90;;;;;;;-0.05;86.01;100457.78;5092584;28;20364;-79
2024/01/19 06:59:53;;;;;;;16.50;15.10;;;;;;;0.17;87.73;100435.22;5077207;28;20266;-79
2024/01/19 07:02:19;;;;;;;16.97;15.33;;;;;;;0.07;87.18;100439.25;5076553;28;20237;-79
2024/01/19 07:04:45;;;;;;;17.67;15.97;;;;;;;-0.09;87.55;100450.00;5076366;28;20200;-79
2024/01/19 07:07:12;;;;;;;17.40;16.00;;;;;;;-0.01;87.16;100454.47;5076294;28;20599;-79
2024/01/19 07:09:38;;;;;;;17.00;15.60;;;;;;;0.07;87.86;100446.09;5075868;28;20258;-79
2024/01/19 07:12:05;;;;;;;18.53;16.63;;;;;;;0.35;87.40;100445.88;5075832;28;20282;-78
2024/01/19 07:14:32;;;;;;;18.53;17.13;;;;;;;0.43;87.29;100445.19;5076285;28;20205;-79
2024/01/19 07:16:59;;;;;;;18.63;16.93;;;;;;;0.31;86.74;100472.31;5075778;28;20789;-79
2024/01/19 07:19:26;;;;;;;18.00;16.50;;;;;;;0.03;87.35;100488.78;5076692;28;20209;-79
2024/01/19 07:21:52;;;;;;;18.53;17.13;;;;;;;0.32;86.29;100488.63;5075776;28;20201;-79
2024/01/19 07:24:19;;;;;;;18.97;17.13;;;;;;;0.32;85.25;100519.44;5075097;28;20250;-78
2024/01/19 07:26:46;;;;;;;19.43;17.43;;;;;;;0.07;85.33;100541.91;5074514;28;20278;-79
2024/01/19 07:29:12;;;;;;;20.50;17.70;;;;;;;-0.05;87.83;100519.38;5074391;28;20599;-78
2024/01/19 07:31:38;;;;;;;19.60;17.87;;;;;;;-0.23;89.73;100483.00;5074770;28;20254;-78
2024/01/19 07:34:06;;;;;;;20.83;19.03;;;;;;;-0.29;90.75;100445.22;5074489;28;20197;-78
2024/01/19 07:36:33;;;;;;;21.00;19.10;;;;;;;-0.35;91.21;100431.41;5074532;28;20246;-78
2024/01/19 07:38:59;;;;;;;21.90;19.87;;;;;;;-0.37;91.59;100415.97;5074566;28;20205;-78
2024/01/19 07:41:25;;;;;;;23.03;20.60;;;;;;;-0.60;93.01;100417.94;5074766;28;20675;-78
2024/01/19 07:43:52;;;;;;;22.93;20.80;;;;;;;-0.44;92.46;100408.94;5075180;28;20244;-78
2024/01/19 07:46:18;;;;;;;22.07;20.17;;;;;;;-0.43;92.99;100400.44;5074584;28;20225;-78
2024/01/19 07:48:44;;;;;;;23.13;20.73;;;;;;;-0.25;92.63;100384.63;5074677;28;20621;-79
2024/01/19 07:51:12;;;;;;;24.20;20.73;;;;;;;0.01;91.27;100402.34;5075061;28;20204;-78
2024/01/19 07:53:38;;;;;;;22.33;20.43;;;;;;;-0.04;91.30;100410.78;5087074;28;20198;-78
2024/01/19 07:56:06;;;;;;;22.43;20.33;;;;;;;-0.09;91.30;100412.38;5075180;28;20200;-78
2024/01/19 07:58:32;;;;;;;23.23;20.80;;;;;;;-0.35;92.51;100410.88;5074787;28;20250;-78
2024/01/19 08:00:58;;;;;;;22.57;20.23;;;;;;;-0.06;91.79;100401.31;5075286;28;20235;-78
2024/01/19 08:03:25;;;;;;;22.40;20.27;;;;;;;-0.12;91.65;100411.41;5074830;28;20247;-78
2024/01/19 08:05:51;;;;;;;21.20;19.37;;;;;;;-0.06;91.63;100416.69;5074418;28;20277;-78
2024/01/19 08:08:19;;;;;;;21.60;19.60;;;;;;;-0.32;91.82;100441.72;5074817;28;20257;-78
2024/01/19 08:10:45;;;;;;;20.23;18.63;;;;;;;-0.21;92.29;100423.19;5083305;28;20205;-78
2024/01/19 08:13:14;;;;;;;22.03;19.87;;;;;;;-0.29;92.21;100424.72;5093806;28;20185;-78
2024/01/19 08:15:40;;;;;;;21.40;19.53;;;;;;;-0.16;92.90;100410.47;5080239;28;20205;-78
2024/01/19 08:18:06;;;;;;;22.00;18.47;;;;;;;-0.07;91.46;100420.09;5074382;28;20592;-78
2024/01/19 08:20:33;;;;;;;20.30;18.23;;;;;;;-0.17;91.16;100448.94;5073976;28;20235;-78
2024/01/19 08:23:01;;;;;;;17.47;15.30;;;;;;;-0.22;91.77;100442.00;5074204;28;20232;-78
2024/01/19 08:25:28;;;;;;;19.07;17.33;;;;;;;-0.14;92.37;100441.31;5074708;28;20626;-78
2024/01/19 08:27:55;;;;;;;19.90;18.27;;;;;;;-0.06;91.80;100452.63;5074279;28;20590;-78
2024/01/19 08:30:21;;;;;;;19.53;17.80;;;;;;;0.09;91.19;100464.97;5073723;28;20263;-78
2024/01/19 08:32:48;;;;;;;17.90;16.33;;;;;;;-0.14;92.03;100474.66;5074328;28;20250;-78
2024/01/19 08:35:14;;;;;;;19.73;17.93;;;;;;;0.09;91.96;100475.22;5073767;28;20311;-79
2024/01/19 08:37:42;;;;;;;21.53;19.07;;;;;;;0.05;91.16;100494.81;5075747;28;20236;-78
2024/01/19 08:40:10;;;;;;;19.13;17.60;;;;;;;0.02;92.04;100487.06;5078219;28;20205;-78
2024/01/19 08:42:38;;;;;;;18.40;16.60;;;;;;;-0.14;92.05;100501.19;5077686;28;20201;-79
2024/01/19 08:45:05;;;;;;;17.23;15.73;;;;;;;-0.03;92.25;100483.50;5077818;28;20269;-79
2024/01/19 08:47:32;;;;;;;19.10;17.23;;;;;;;0.16;91.96;100487.38;5077769;28;20638;-79
2024/01/19 08:49:59;;;;;;;19.77;17.87;;;;;;;0.19;91.15;100507.97;5077839;28;20242;-78
2024/01/19 08:52:28;;;;;;;18.60;16.80;;;;;;;0.02;91.00;100522.09;5078747;28;20211;-79
2024/01/19 08:54:55;;;;;;;19.10;17.20;;;;;;;0.23;90.91;100529.47;5077351;28;20209;-79
2024/01/19 08:57:21;;;;;;;19.67;17.97;;;;;;;0.12;90.92;100540.34;5077546;28;20225;-79
2024/01/19 08:59:49;;;;;;;19.03;17.37;;;;;;;0.30;89.89;100544.19;5077710;28;20201;-79
2024/01/19 09:02:15;;;;;;;18.57;16.90;;;;;;;0.15;89.37;100570.34;5077327;28;20259;-79
2024/01/19 09:04:41;;;;;;;18.87;17.17;;;;;;;0.31;89.54;100562.19;5078069;28;20225;-78
2024/01/19 09:07:08;;;;;;;18.03;16.30;;;;;;;0.35;88.94;100574.25;5077840;28;20251;-78
2024/01/19 09:09:35;;;;;;;17.47;15.63;;;;;;;0.18;88.94;100591.81;5077703;28;20574;-79
2024/01/19 09:12:01;;;;;;;18.17;16.57;;;;;;;0.56;88.20;100594.47;5077604;28;20258;-78
2024/01/19 09:14:28;;;;;;;19.40;17.30;;;;;;;0.44;88.25;100607.00;5077186;28;20201;-78
2024/01/19 09:16:55;;;;;;;18.80;16.80;;;;;;;0.34;88.02;100626.44;5077119;28;20286;-79
2024/01/19 09:19:22;;;;;;;18.00;16.27;;;;;;;0.41;87.86;100636.88;5077639;28;20258;-78
2024/01/19 09:21:50;;;;;;;20.20;15.83;;;;;;;0.67;87.45;100651.22;5077829;28;20235;-79
2024/01/19 09:24:17;;;;;;;20.10;16.40;;;;;;;0.65;87.86;100654.59;5077387;28;20270;-78
2024/01/19 09:26:44;;;;;;;20.23;17.20;;;;;;;0.39;88.54;100670.22;5077251;28;20927;-79
2024/01/19 09:29:10;;;;;;;19.73;16.57;;;;;;;0.43;88.52;100672.03;5076652;28;20212;-78
2024/01/19 09:31:41;;;;;;;20.00;16.40;;;;;;;0.49;87.86;100667.03;5075387;28;20288;-78
2024/01/19 09:34:09;;;;;;;22.07;16.03;;;;;;;0.67;87.30;100676.06;5074661;28;20568;-78
2024/01/19 09:36:35;;;;;;;19.90;17.40;;;;;;;0.83;86.34;100693.56;5074420;28;20285;-78
2024/01/19 09:39:02;;;;;;;16.93;15.20;;;;;;;0.97;86.13;100715.38;5074939;28;20274;-78
2024/01/19 09:41:34;;;;;;;17.03;15.23;;;;;;;0.93;85.72;100736.69;5075185;28;20239;-78
2024/01/19 09:44:07;;;;;;;19.33;16.27;;;;;;;0.81;85.40;100763.75;5076115;28;20228;-78
2024/01/19 09:46:43;;;;;;;17.67;15.77;;;;;;;0.69;86.54;100759.16;5075432;28;20723;-78
2024/01/19 09:49:20;;;;;;;17.70;15.70;;;;;;;0.77;86.70;100765.38;5073849;28;20254;-78
2024/01/19 09:51:56;;;;;;;18.53;16.57;;;;;;;1.02;86.01;100773.72;5075107;28;20293;-78
2024/01/19 09:54:29;;;;;;;22.00;16.33;;;;;;;0.73;85.72;100799.53;5075381;28;20204;-78
2024/01/19 09:56:55;;;;;;;21.53;16.33;;;;;;;0.74;85.31;100794.44;5075065;28;20232;-78
2024/01/19 09:59:24;;;;;;;23.67;16.27;;;;;;;0.77;85.92;100783.34;5074741;28;20209;-78
2024/01/19 10:01:53;;;;;;;20.43;16.73;;;;;;;0.88;85.77;100791.38;5074913;28;20266;-78
2024/01/19 10:04:21;;;;;;;23.77;16.40;;;;;;;0.77;86.32;100788.50;5084767;28;20277;-78
2024/01/19 10:06:48;;;;;;;17.77;15.67;;;;;;;0.68;85.92;100801.13;5094597;28;20225;-78
2024/01/19 10:09:14;;;;;;;17.97;15.77;;;;;;;0.96;85.53;100789.84;5094721;28;20208;-78
2024/01/19 10:11:43;;;;;;;16.80;15.30;;;;;;;0.85;85.28;100816.97;5094595;28;20745;-78
2024/01/19 10:14:09;;;;;;;18.97;15.53;;;;;;;0.80;86.61;100804.00;5095284;28;20205;-79
2024/01/19 10:16:36;;;;;;;20.57;16.40;;;;;;;0.75;86.99;100798.75;5097264;28;20232;-80
2024/01/19 10:19:04;;;;;;;20.90;16.37;;;;;;;0.49;87.28;100808.28;5097517;28;20674;-80
2024/01/19 10:21:33;;;;;;;18.30;15.67;;;;;;;0.80;87.32;100780.88;5095441;28;20211;-77
2024/01/19 10:24:09;;;;;;;21.23;15.03;;;;;;;0.55;86.69;100807.59;5095466;28;20262;-78
2024/01/19 10:26:36;;;;;;;16.73;15.07;;;;;;;0.74;86.17;100814.13;5094229;28;20285;-78
2024/01/19 10:29:09;;;;;;;16.77;14.97;;;;;;;0.77;86.25;100809.06;5094482;28;20200;-78
2024/01/19 10:31:35;;;;;;;18.77;15.27;;;;;;;1.01;85.17;100819.09;5089750;28;20205;-78
2024/01/19 10:34:02;;;;;;;21.57;15.40;;;;;;;0.95;85.34;100831.78;5074667;28;20199;-78
2024/01/19 10:36:37;;;;;;;21.10;15.93;;;;;;;0.91;85.22;100835.13;5075548;28;20686;-78
2024/01/19 10:39:17;;;;;;;19.30;15.83;;;;;;;1.00;85.23;100840.50;5074610;28;20553;-78
2024/01/19 10:41:44;;;;;;;17.93;15.23;;;;;;;0.78;85.49;100845.06;5075910;28;20205;-78
2024/01/19 10:44:11;;;;;;;26.83;16.27;;;;;;;0.68;86.45;100845.66;5081424;28;20228;-78
2024/01/19 10:46:38;;;;;;;23.20;16.23;;;;;;;0.77;86.82;100839.88;5085310;28;20856;-78
2024/01/19 10:49:05;;;;;;;21.40;14.33;;;;;;;0.97;86.54;100836.16;5084263;28;20676;-78
2024/01/19 10:51:35;;;;;;;22.73;15.90;;;;;;;0.78;86.40;100841.63;5084868;28;20209;-78
2024/01/19 10:54:03;;;;;;;20.90;15.13;;;;;;;0.75;85.81;100854.38;5085014;28;20231;-78
2024/01/19 10:56:30;;;;;;;17.60;15.00;;;;;;;1.09;85.33;100838.19;5079007;28;20221;-77
2024/01/19 10:58:56;;;;;;;17.90;16.03;;;;;;;1.26;85.64;100848.88;5073525;28;20281;-77
2024/01/19 11:01:22;;;;;;;24.63;16.33;;;;;;;1.07;85.21;100868.13;5073122;28;20265;-77
2024/01/19 11:03:51;;;;;;;18.17;15.57;;;;;;;1.27;84.79;100866.06;5073134;28;20274;-77
2024/01/19 11:06:19;;;;;;;18.33;14.87;;;;;;;1.04;84.78;100865.47;5071848;28;20278;-77
2024/01/19 11:08:46;;;;;;;17.00;14.57;;;;;;;0.99;84.69;100877.31;5071981;28;20248;-77
2024/01/19 11:11:14;;;;;;;15.87;13.63;;;;;;;1.03;84.96;100884.31;5072218;28;20262;-77
2024/01/19 11:13:44;;;;;;;23.07;14.60;;;;;;;1.20;84.15;100895.03;5072502;28;20266;-77
2024/01/19 11:16:12;;;;;;;14.70;13.20;;;;;;;1.04;84.23;100892.88;5072367;28;20258;-77
2024/01/19 11:18:39;;;;;;;17.80;12.80;;;;;;;1.44;84.00;100888.78;5072136;28;20200;-76